Time;durP1;ratioP1;P1;durP2;ratioP2;P2;SDS_P1;SDS_P2;PMS_P1;PMS_P2;Temp;Humidity;BMP_temperature;BMP_pressure;BME280_temperature;BME280_humidity;BME280_pressure;Samples;Min_cycle;Max_cycle;Signal;HPM_P1;HPM_P2
2023/12/29 00:02:00;;;;;;;10.43;1.52;;;;;;;;;;5097985;28;20046;-78
2023/12/29 00:04:26;;;;;;;9.23;1.02;;;;;;;;;;5114906;28;20138;-78
2023/12/29 00:06:52;;;;;;;12.00;1.25;;;;;;;;;;5096837;28;20055;-78
2023/12/29 00:09:21;;;;;;;9.57;1.42;;;;;;;;;;5115042;28;20526;-78
2023/12/29 00:11:51;;;;;;;10.35;1.08;;;;;;;;;;5097743;28;20435;-78
2023/12/29 00:14:17;;;;;;;13.60;1.70;;;;;;;;;;5114572;28;20514;-78
2023/12/29 00:16:46;;;;;;;13.00;1.73;;;;;;;;;;5097158;28;20039;-78
2023/12/29 00:19:12;;;;;;;7.00;1.40;;;;;;;;;;5079880;28;20040;-79
2023/12/29 00:21:39;;;;;;;9.45;1.30;;;;;;;;;;5097666;28;20056;-78
2023/12/29 00:24:05;;;;;;;11.93;1.05;;;;;;;;;;5115510;28;20039;-78
2023/12/29 00:26:31;;;;;;;8.70;1.48;;;;;;;;;;5114670;28;20082;-78
2023/12/29 00:28:57;;;;;;;13.60;1.38;;;;;;;;;;5114660;28;20050;-78
2023/12/29 00:31:23;;;;;;;11.75;1.15;;;;;;;;;;5097220;28;20047;-78
2023/12/29 00:33:51;;;;;;;12.90;1.55;;;;;;;;;;5096646;28;20043;-78
2023/12/29 00:36:21;;;;;;;8.57;1.30;;;;;;;;;;5114759;28;20495;-78
2023/12/29 00:38:47;;;;;;;10.10;1.70;;;;;;;;;;5096573;28;20467;-78
2023/12/29 00:41:13;;;;;;;11.73;1.20;;;;;;;;;;5114131;28;20399;-78
2023/12/29 00:43:39;;;;;;;10.07;1.60;;;;;;;;;;5114371;28;20047;-79
2023/12/29 00:46:05;;;;;;;9.95;1.13;;;;;;;;;;5114475;28;20096;-78
2023/12/29 00:48:34;;;;;;;12.63;1.48;;;;;;;;;;5097227;28;20047;-78
2023/12/29 00:51:04;;;;;;;9.80;1.42;;;;;;;;;;5113722;28;20134;-78
2023/12/29 00:53:32;;;;;;;9.23;2.15;;;;;;;;;;5114011;28;20388;-78
2023/12/29 00:55:59;;;;;;;9.65;1.50;;;;;;;;;;5096041;28;20051;-78
2023/12/29 00:58:25;;;;;;;10.50;1.80;;;;;;;;;;5114776;28;20056;-78
2023/12/29 01:00:51;;;;;;;12.90;1.80;;;;;;;;;;5114202;28;20131;-78
2023/12/29 01:03:17;;;;;;;10.65;1.73;;;;;;;;;;5079272;28;20048;-78
2023/12/29 01:05:43;;;;;;;12.43;1.60;;;;;;;;;;5113976;28;20051;-78
2023/12/29 01:08:09;;;;;;;11.52;1.58;;;;;;;;;;5096809;28;20058;-78
2023/12/29 01:10:35;;;;;;;16.35;1.92;;;;;;;;;;5096004;28;20484;-78
2023/12/29 01:13:01;;;;;;;14.68;2.05;;;;;;;;;;5095786;28;20043;-78
2023/12/29 01:15:28;;;;;;;10.88;1.65;;;;;;;;;;5114908;28;20043;-78
2023/12/29 01:17:54;;;;;;;11.35;1.80;;;;;;;;;;5096104;28;20047;-78
2023/12/29 01:20:20;;;;;;;9.98;1.60;;;;;;;;;;5114039;28;20081;-78
2023/12/29 01:22:46;;;;;;;8.18;1.63;;;;;;;;;;5095702;28;20075;-78
2023/12/29 01:25:12;;;;;;;10.80;1.35;;;;;;;;;;5096111;28;20048;-78
2023/12/29 01:27:38;;;;;;;15.20;2.10;;;;;;;;;;5096063;28;20575;-78
2023/12/29 01:30:05;;;;;;;12.23;2.08;;;;;;;;;;5095941;28;20108;-78
2023/12/29 01:32:31;;;;;;;14.10;2.03;;;;;;;;;;5096009;28;20158;-78
2023/12/29 01:34:57;;;;;;;17.38;1.23;;;;;;;;;;5113929;28;20040;-78
2023/12/29 01:37:23;;;;;;;9.20;1.05;;;;;;;;;;5113816;28;20047;-78
2023/12/29 01:39:49;;;;;;;9.63;1.55;;;;;;;;;;5113877;28;20082;-78
2023/12/29 01:42:15;;;;;;;8.45;1.30;;;;;;;;;;5113882;28;20054;-78
2023/12/29 01:44:41;;;;;;;12.88;1.33;;;;;;;;;;5095919;28;20051;-78
2023/12/29 01:47:17;;;;;;;8.40;0.88;;;;;;;;;;5095892;28;20036;-78
2023/12/29 01:49:45;;;;;;;10.13;0.88;;;;;;;;;;5095515;28;20051;-78
2023/12/29 01:52:12;;;;;;;6.93;1.00;;;;;;;;;;5113774;28;20141;-78
2023/12/29 01:54:40;;;;;;;9.57;1.70;;;;;;;;;;5096587;28;20524;-78
2023/12/29 01:57:08;;;;;;;8.05;0.88;;;;;;;;;;5096649;28;20411;-78
2023/12/29 01:59:35;;;;;;;6.45;0.85;;;;;;;;;;5095778;28;20048;-78
2023/12/29 02:02:01;;;;;;;6.70;1.27;;;;;;;;;;5114229;28;20130;-78
2023/12/29 02:04:28;;;;;;;9.13;1.23;;;;;;;;;;5098857;28;20063;-78
2023/12/29 02:06:55;;;;;;;9.43;1.40;;;;;;;;;;5117284;28;20054;-78
2023/12/29 02:09:21;;;;;;;12.80;1.35;;;;;;;;;;5100188;28;20051;-78
2023/12/29 02:11:48;;;;;;;9.25;1.23;;;;;;;;;;5117834;28;20048;-78
2023/12/29 02:14:15;;;;;;;8.57;0.90;;;;;;;;;;5100140;28;20130;-78
2023/12/29 02:16:51;;;;;;;10.48;1.45;;;;;;;;;;5117220;28;20048;-78
2023/12/29 02:19:24;;;;;;;12.23;1.60;;;;;;;;;;5099504;28;20536;-78
2023/12/29 02:21:50;;;;;;;5.18;1.25;;;;;;;;;;5117358;28;20130;-78
2023/12/29 02:24:16;;;;;;;11.70;1.55;;;;;;;;;;5098874;28;20043;-78
2023/12/29 02:26:45;;;;;;;11.73;1.42;;;;;;;;;;5116999;28;20053;-78
2023/12/29 02:29:13;;;;;;;9.00;1.15;;;;;;;;;;5098735;28;20381;-78
2023/12/29 02:31:40;;;;;;;8.27;1.50;;;;;;;;;;5117288;28;20044;-78
2023/12/29 02:34:08;;;;;;;9.52;1.23;;;;;;;;;;5098960;28;20083;-78
2023/12/29 02:36:42;;;;;;;13.23;1.13;;;;;;;;;;5116700;28;20047;-78
2023/12/29 02:39:08;;;;;;;10.13;1.15;;;;;;;;;;5099119;28;20472;-78
2023/12/29 02:41:34;;;;;;;6.82;0.82;;;;;;;;;;5098478;28;20093;-78
2023/12/29 02:44:00;;;;;;;11.93;1.45;;;;;;;;;;5116570;28;20093;-78
2023/12/29 02:46:26;;;;;;;8.75;1.10;;;;;;;;;;5116623;28;20044;-78
2023/12/29 02:48:52;;;;;;;9.75;1.40;;;;;;;;;;5116596;28;20043;-78
2023/12/29 02:51:18;;;;;;;6.40;0.80;;;;;;;;;;5117348;28;20047;-78
2023/12/29 02:53:44;;;;;;;12.88;1.00;;;;;;;;;;5116463;28;20040;-78
2023/12/29 02:56:10;;;;;;;7.63;0.90;;;;;;;;;;5116488;28;20131;-78
2023/12/29 02:58:36;;;;;;;9.00;1.08;;;;;;;;;;5116403;28;20059;-78
2023/12/29 03:01:03;;;;;;;6.00;0.70;;;;;;;;;;5098417;28;20098;-78
2023/12/29 03:03:29;;;;;;;7.13;1.02;;;;;;;;;;5098466;28;20051;-78
2023/12/29 03:05:55;;;;;;;11.23;1.38;;;;;;;;;;5097737;28;20052;-79
2023/12/29 03:08:21;;;;;;;9.20;1.25;;;;;;;;;;5116221;28;20052;-78
2023/12/29 03:10:47;;;;;;;4.43;0.60;;;;;;;;;;5098216;28;20132;-78
2023/12/29 03:13:13;;;;;;;8.68;1.33;;;;;;;;;;5116001;28;20047;-78
2023/12/29 03:15:39;;;;;;;10.60;1.55;;;;;;;;;;5098431;28;20062;-78
2023/12/29 03:18:05;;;;;;;6.72;0.95;;;;;;;;;;5116660;28;20047;-78
2023/12/29 03:20:31;;;;;;;7.75;1.13;;;;;;;;;;5115950;28;20053;-78
2023/12/29 03:22:57;;;;;;;6.47;1.27;;;;;;;;;;5116362;28;20464;-78
2023/12/29 03:25:23;;;;;;;9.40;1.08;;;;;;;;;;5115970;28;20066;-78
2023/12/29 03:27:49;;;;;;;10.57;1.10;;;;;;;;;;5115826;28;20046;-78
2023/12/29 03:30:15;;;;;;;9.57;1.77;;;;;;;;;;5097649;28;20060;-78
2023/12/29 03:32:41;;;;;;;9.93;1.20;;;;;;;;;;5098032;28;20116;-78
2023/12/29 03:35:07;;;;;;;9.82;1.33;;;;;;;;;;5115702;28;20047;-78
2023/12/29 03:37:33;;;;;;;11.82;1.27;;;;;;;;;;5097609;28;20051;-78
2023/12/29 03:40:00;;;;;;;11.52;1.75;;;;;;;;;;5097742;28;20082;-78
2023/12/29 03:42:26;;;;;;;8.23;1.13;;;;;;;;;;5115499;28;20479;-78
2023/12/29 03:44:52;;;;;;;6.60;1.02;;;;;;;;;;5097502;28;20483;-78
2023/12/29 03:47:18;;;;;;;9.50;1.00;;;;;;;;;;5116059;28;20387;-78
2023/12/29 03:49:44;;;;;;;12.90;1.05;;;;;;;;;;5115348;28;20318;-78
2023/12/29 03:52:10;;;;;;;13.27;1.77;;;;;;;;;;5098254;28;20422;-78
2023/12/29 03:54:36;;;;;;;10.38;1.40;;;;;;;;;;5116112;28;20047;-78
2023/12/29 03:57:02;;;;;;;9.63;1.10;;;;;;;;;;5097610;28;20047;-78
2023/12/29 03:59:28;;;;;;;10.45;1.17;;;;;;;;;;5115198;28;20047;-78
2023/12/29 04:01:54;;;;;;;10.65;1.75;;;;;;;;;;5097477;28;20047;-78
2023/12/29 04:04:20;;;;;;;12.68;1.70;;;;;;;;;;5115026;28;20048;-78
2023/12/29 04:06:46;;;;;;;10.05;1.48;;;;;;;;;;5114947;28;20100;-78
2023/12/29 04:09:12;;;;;;;10.45;1.35;;;;;;;;;;5080324;28;20081;-78
2023/12/29 04:11:39;;;;;;;11.25;1.52;;;;;;;;;;5114929;28;20055;-78
2023/12/29 04:14:05;;;;;;;6.05;1.15;;;;;;;;;;5096941;28;20043;-78
2023/12/29 04:16:31;;;;;;;16.33;1.98;;;;;;;;;;5114937;28;20085;-78
2023/12/29 04:18:57;;;;;;;15.45;2.17;;;;;;;;;;5096980;28;20133;-78
2023/12/29 04:21:23;;;;;;;10.50;1.60;;;;;;;;;;5114855;28;20051;-78
2023/12/29 04:23:49;;;;;;;13.82;2.47;;;;;;;;;;5096642;28;20138;-78
2023/12/29 04:26:15;;;;;;;9.82;1.58;;;;;;;;;;5113829;28;20089;-78
2023/12/29 04:28:42;;;;;;;17.10;2.22;;;;;;;;;;5114676;28;20040;-78
2023/12/29 04:31:08;;;;;;;15.80;1.73;;;;;;;;;;5114661;28;20082;-78
2023/12/29 04:33:34;;;;;;;14.75;2.17;;;;;;;;;;5097485;28;20130;-78
2023/12/29 04:36:00;;;;;;;15.52;1.83;;;;;;;;;;5097096;28;20396;-78
2023/12/29 04:38:26;;;;;;;13.30;1.80;;;;;;;;;;5096583;28;20372;-78
2023/12/29 04:40:52;;;;;;;12.35;1.73;;;;;;;;;;5096314;28;20399;-78
2023/12/29 04:43:18;;;;;;;13.77;2.15;;;;;;;;;;5114372;28;20050;-78
2023/12/29 04:45:44;;;;;;;14.88;1.85;;;;;;;;;;5114398;28;20047;-78
2023/12/29 04:48:12;;;;;;;10.70;1.92;;;;;;;;;;5097271;28;20429;-78
2023/12/29 04:50:38;;;;;;;17.38;2.38;;;;;;;;;;5096371;28;20059;-78
2023/12/29 04:53:04;;;;;;;10.80;1.67;;;;;;;;;;5096168;28;20050;-78
2023/12/29 04:55:30;;;;;;;12.32;1.45;;;;;;;;;;5114270;28;20052;-78
2023/12/29 04:57:56;;;;;;;15.90;1.88;;;;;;;;;;5114232;28;20130;-78
2023/12/29 05:00:22;;;;;;;13.00;1.85;;;;;;;;;;5114244;28;20052;-78
2023/12/29 05:02:48;;;;;;;16.75;2.17;;;;;;;;;;5097050;28;20047;-78
2023/12/29 05:05:14;;;;;;;17.13;2.55;;;;;;;;;;5114195;28;20047;-79
2023/12/29 05:07:40;;;;;;;13.63;1.85;;;;;;;;;;5113983;28;20091;-78
2023/12/29 05:10:07;;;;;;;16.40;2.30;;;;;;;;;;5096098;28;20047;-78
2023/12/29 05:12:33;;;;;;;18.13;2.60;;;;;;;;;;5114181;28;20062;-78
2023/12/29 05:14:59;;;;;;;16.35;2.45;;;;;;;;;;5114109;28;20043;-78
2023/12/29 05:17:25;;;;;;;16.00;2.53;;;;;;;;;;5079284;28;20054;-78
2023/12/29 05:19:51;;;;;;;15.40;2.25;;;;;;;;;;5114063;28;20050;-78
2023/12/29 05:22:17;;;;;;;15.45;1.63;;;;;;;;;;5096193;28;20083;-78
2023/12/29 05:24:45;;;;;;;22.08;2.22;;;;;;;;;;5095547;28;20418;-78
2023/12/29 05:27:11;;;;;;;21.63;2.72;;;;;;;;;;5095746;28;20048;-78
2023/12/29 05:29:37;;;;;;;12.98;1.60;;;;;;;;;;5113948;28;20047;-78
2023/12/29 05:32:04;;;;;;;16.08;2.38;;;;;;;;;;5113898;28;20048;-78
2023/12/29 05:34:30;;;;;;;14.65;2.53;;;;;;;;;;5113884;28;20047;-78
2023/12/29 05:36:56;;;;;;;19.48;2.63;;;;;;;;;;5097199;28;20051;-78
2023/12/29 05:39:22;;;;;;;14.73;2.38;;;;;;;;;;5117965;28;20048;-78
2023/12/29 05:41:48;;;;;;;21.67;2.67;;;;;;;;;;5099592;28;20039;-78
2023/12/29 05:44:15;;;;;;;17.73;2.38;;;;;;;;;;5117763;28;20039;-78
2023/12/29 05:46:41;;;;;;;19.33;2.45;;;;;;;;;;5100621;28;20058;-78
2023/12/29 05:49:07;;;;;;;23.95;3.28;;;;;;;;;;5118621;28;20078;-78
2023/12/29 05:51:33;;;;;;;18.23;2.85;;;;;;;;;;5099527;28;20054;-78
2023/12/29 05:53:59;;;;;;;18.60;3.20;;;;;;;;;;5117610;28;20043;-78
2023/12/29 05:56:25;;;;;;;25.05;2.95;;;;;;;;;;5117633;28;20051;-78
2023/12/29 05:58:51;;;;;;;18.73;2.28;;;;;;;;;;5117614;28;20051;-78
2023/12/29 06:01:17;;;;;;;19.80;2.78;;;;;;;;;;5117531;28;20051;-78
2023/12/29 06:03:43;;;;;;;21.98;2.97;;;;;;;;;;5099106;28;20479;-78
2023/12/29 06:06:09;;;;;;;19.02;2.42;;;;;;;;;;5117347;28;20047;-78
2023/12/29 06:08:35;;;;;;;14.30;2.38;;;;;;;;;;5117346;28;20055;-78
2023/12/29 06:11:01;;;;;;;16.23;2.47;;;;;;;;;;5117011;28;20560;-78
2023/12/29 06:13:29;;;;;;;19.67;2.85;;;;;;;;;;5117343;28;20039;-78
2023/12/29 06:15:55;;;;;;;17.50;3.13;;;;;;;;;;5117257;28;20043;-78
2023/12/29 06:18:21;;;;;;;22.10;2.92;;;;;;;;;;5099555;28;20058;-78
2023/12/29 06:20:47;;;;;;;15.73;2.85;;;;;;;;;;5117101;28;20507;-78
2023/12/29 06:23:13;;;;;;;18.35;2.85;;;;;;;;;;5117818;28;20123;-78
2023/12/29 06:25:41;;;;;;;19.75;2.75;;;;;;;;;;5117028;28;20050;-78
2023/12/29 06:28:08;;;;;;;17.88;3.45;;;;;;;;;;5117020;28;20119;-78
2023/12/29 06:30:34;;;;;;;21.92;2.80;;;;;;;;;;5117503;28;20048;-78
2023/12/29 06:33:00;;;;;;;21.23;3.17;;;;;;;;;;5098960;28;20365;-78
2023/12/29 06:35:26;;;;;;;17.25;3.50;;;;;;;;;;5098926;28;20078;-78
2023/12/29 06:37:52;;;;;;;19.17;3.03;;;;;;;;;;5098831;28;20068;-78
2023/12/29 06:40:18;;;;;;;22.10;3.20;;;;;;;;;;5081971;28;20051;-78
2023/12/29 06:42:44;;;;;;;17.65;3.15;;;;;;;;;;5116753;28;20082;-78
2023/12/29 06:45:10;;;;;;;22.77;4.00;;;;;;;;;;5116579;28;20051;-78
2023/12/29 06:47:37;;;;;;;21.52;2.00;;;;;;;;;;5116941;28;20415;-78
2023/12/29 06:50:03;;;;;;;21.85;2.58;;;;;;;;;;5115395;28;20086;-78
2023/12/29 06:52:34;;;;;;;22.02;2.58;;;;;;;;;;5098495;28;20051;-78
2023/12/29 06:55:01;;;;;;;27.48;3.30;;;;;;;;;;5117106;28;20044;-79
2023/12/29 06:57:27;;;;;;;20.92;2.58;;;;;;;;;;5098797;28;20047;-78
2023/12/29 06:59:53;;;;;;;21.95;3.10;;;;;;;;;;5116434;28;20043;-78
2023/12/29 07:02:19;;;;;;;20.80;3.17;;;;;;;;;;5116381;28;20059;-78
2023/12/29 07:04:45;;;;;;;22.33;3.65;;;;;;;;;;5116339;28;20066;-78
2023/12/29 07:07:11;;;;;;;22.90;4.40;;;;;;;;;;5098295;28;20122;-78
2023/12/29 07:09:41;;;;;;;24.08;3.35;;;;;;;;;;5116249;28;20047;-78
2023/12/29 07:12:07;;;;;;;19.67;2.88;;;;;;;;;;5081687;28;20044;-78
2023/12/29 07:14:35;;;;;;;23.77;3.20;;;;;;;;;;5115920;28;20499;-78
2023/12/29 07:17:01;;;;;;;20.00;2.78;;;;;;;;;;5116088;28;20486;-78
2023/12/29 07:19:33;;;;;;;20.25;2.70;;;;;;;;;;5098111;28;20043;-78
2023/12/29 07:21:59;;;;;;;24.55;3.13;;;;;;;;;;5116106;28;20047;-78
2023/12/29 07:24:26;;;;;;;21.30;2.80;;;;;;;;;;5080926;28;20048;-78
2023/12/29 07:26:52;;;;;;;25.58;3.60;;;;;;;;;;5115919;28;20079;-78
2023/12/29 07:29:18;;;;;;;25.23;3.60;;;;;;;;;;5115865;28;20097;-78
2023/12/29 07:31:44;;;;;;;25.88;4.20;;;;;;;;;;5097887;28;20043;-78
2023/12/29 07:34:10;;;;;;;19.60;3.17;;;;;;;;;;5115776;28;20039;-81
2023/12/29 07:36:39;;;;;;;23.10;3.05;;;;;;;;;;5097713;28;20046;-78
2023/12/29 07:39:05;;;;;;;24.92;4.32;;;;;;;;;;5115625;28;20075;-78
2023/12/29 07:41:31;;;;;;;20.80;3.60;;;;;;;;;;5098214;28;20531;-78
2023/12/29 07:43:57;;;;;;;20.52;3.20;;;;;;;;;;5116072;28;20040;-77
2023/12/29 07:46:26;;;;;;;17.77;2.83;;;;;;;;;;5116339;28;20051;-78
2023/12/29 07:48:52;;;;;;;20.17;3.17;;;;;;;;;;5115419;28;20046;-78
2023/12/29 07:51:19;;;;;;;21.08;3.58;;;;;;;;;;5097459;28;20467;-78
2023/12/29 07:53:45;;;;;;;19.40;3.30;;;;;;;;;;5116174;28;20043;-78
2023/12/29 07:56:11;;;;;;;18.45;2.65;;;;;;;;;;5097358;28;20043;-78
2023/12/29 07:58:37;;;;;;;21.55;3.97;;;;;;;;;;5115252;28;20043;-78
2023/12/29 08:01:03;;;;;;;15.18;2.60;;;;;;;;;;5115017;28;20068;-78
2023/12/29 08:03:29;;;;;;;11.90;1.27;;;;;;;;;;5115111;28;20036;-78
2023/12/29 08:05:55;;;;;;;14.68;1.67;;;;;;;;;;5079636;28;20052;-78
2023/12/29 08:08:21;;;;;;;15.85;2.53;;;;;;;;;;5096774;28;20491;-78
2023/12/29 08:10:47;;;;;;;21.13;2.70;;;;;;;;;;5115050;28;20047;-78
2023/12/29 08:13:13;;;;;;;23.50;3.42;;;;;;;;;;5115827;28;20143;-78
2023/12/29 08:15:39;;;;;;;19.42;3.13;;;;;;;;;;5097864;28;20105;-79
2023/12/29 08:18:06;;;;;;;16.67;2.70;;;;;;;;;;5114857;28;20135;-79
2023/12/29 08:20:32;;;;;;;24.85;3.72;;;;;;;;;;5096901;28;20043;-78
2023/12/29 08:22:58;;;;;;;22.48;3.13;;;;;;;;;;5114801;28;20078;-78
2023/12/29 08:25:24;;;;;;;17.60;2.30;;;;;;;;;;5097060;28;20055;-77
2023/12/29 08:27:50;;;;;;;20.83;3.33;;;;;;;;;;5114829;28;20122;-77
2023/12/29 08:30:16;;;;;;;22.02;2.78;;;;;;;;;;5115517;28;20044;-77
2023/12/29 08:32:42;;;;;;;21.85;2.55;;;;;;;;;;5096490;28;20083;-78
2023/12/29 08:35:08;;;;;;;19.75;3.30;;;;;;;;;;5114897;28;20369;-77
2023/12/29 08:37:34;;;;;;;15.60;2.53;;;;;;;;;;5096266;28;20052;-77
2023/12/29 08:40:01;;;;;;;19.90;2.25;;;;;;;;;;5114505;28;20043;-77
2023/12/29 08:42:28;;;;;;;17.60;1.90;;;;;;;;;;5114496;28;20047;-77
2023/12/29 08:44:54;;;;;;;19.17;2.30;;;;;;;;;;5114414;28;20039;-77
2023/12/29 08:47:20;;;;;;;16.48;2.67;;;;;;;;;;5114401;28;20054;-77
2023/12/29 08:49:48;;;;;;;15.30;2.05;;;;;;;;;;5115248;28;20079;-77
2023/12/29 08:52:15;;;;;;;14.75;2.15;;;;;;;;;;5096328;28;20043;-77
2023/12/29 08:54:41;;;;;;;12.82;2.08;;;;;;;;;;5114318;28;20118;-77
2023/12/29 08:57:07;;;;;;;16.38;2.00;;;;;;;;;;5114377;28;20083;-77
2023/12/29 08:59:33;;;;;;;14.55;2.10;;;;;;;;;;5114289;28;20104;-77
2023/12/29 09:02:00;;;;;;;14.88;1.95;;;;;;;;;;5114229;28;20052;-77
2023/12/29 09:04:26;;;;;;;11.35;1.83;;;;;;;;;;5095627;28;20495;-77
2023/12/29 09:06:52;;;;;;;15.70;1.30;;;;;;;;;;5096163;28;20122;-78
2023/12/29 09:09:18;;;;;;;14.48;1.70;;;;;;;;;;5114265;28;20056;-78
2023/12/29 09:11:44;;;;;;;10.65;1.60;;;;;;;;;;5115435;28;20047;-78
2023/12/29 09:14:10;;;;;;;16.10;2.03;;;;;;;;;;5121769;28;20439;-78
2023/12/29 09:16:37;;;;;;;12.52;1.80;;;;;;;;;;5102871;28;20142;-77
2023/12/29 09:19:03;;;;;;;12.07;1.40;;;;;;;;;;5121192;28;20360;-78
2023/12/29 09:21:29;;;;;;;9.32;1.35;;;;;;;;;;5121402;28;20047;-78
2023/12/29 09:23:55;;;;;;;6.28;0.80;;;;;;;;;;5102551;28;20487;-77
2023/12/29 09:26:21;;;;;;;8.52;1.40;;;;;;;;;;5121359;28;20048;-78
2023/12/29 09:28:48;;;;;;;8.32;0.80;;;;;;;;;;5103622;28;20460;-78
2023/12/29 09:31:14;;;;;;;6.68;0.95;;;;;;;;;;5121358;28;20039;-79
2023/12/29 09:33:40;;;;;;;9.98;1.20;;;;;;;;;;5103092;28;20383;-78
2023/12/29 09:36:06;;;;;;;5.85;0.82;;;;;;;;;;5103622;28;20044;-78
2023/12/29 09:38:33;;;;;;;9.82;1.42;;;;;;;;;;5120667;28;20055;-78
2023/12/29 09:41:05;;;;;;;9.60;1.10;;;;;;;;;;5121513;28;20047;-78
2023/12/29 09:43:32;;;;;;;9.48;1.30;;;;;;;;;;5120713;28;20077;-78
2023/12/29 09:45:59;;;;;;;7.97;1.67;;;;;;;;;;5120716;28;20047;-78
2023/12/29 09:48:27;;;;;;;9.55;1.20;;;;;;;;;;5120686;28;20603;-79
2023/12/29 09:50:54;;;;;;;7.05;0.98;;;;;;;;;;5102368;28;20112;-78
2023/12/29 09:53:21;;;;;;;4.93;0.68;;;;;;;;;;5085630;28;20450;-77
2023/12/29 09:55:49;;;;;;;4.68;0.60;;;;;;;;;;5102565;28;20051;-78
2023/12/29 09:58:16;;;;;;;5.15;0.70;;;;;;;;;;5120507;28;20403;-78
2023/12/29 10:00:42;;;;;;;8.75;0.70;;;;;;;;;;5120526;28;20051;-78
2023/12/29 10:03:09;;;;;;;3.75;0.52;;;;;;;;;;5102398;28;20086;-78
2023/12/29 10:05:35;;;;;;;4.53;0.80;;;;;;;;;;5102383;28;20503;-78
2023/12/29 10:08:03;;;;;;;9.05;0.93;;;;;;;;;;5120400;28;20048;-78
2023/12/29 10:10:30;;;;;;;5.60;0.70;;;;;;;;;;5120448;28;20044;-77
2023/12/29 10:12:57;;;;;;;5.78;0.90;;;;;;;;;;5102701;28;20043;-77
2023/12/29 10:15:29;;;;;;;9.98;1.10;;;;;;;;;;5103244;28;20468;-77
2023/12/29 10:17:55;;;;;;;2.95;0.50;;;;;;;;;;5120339;28;20130;-78
2023/12/29 10:20:41;;;;;;;5.07;0.40;;;;;;;;;;5120911;28;20048;-77
2023/12/29 10:23:16;;;;;;;7.47;0.95;;;;;;;;;;5101440;28;20052;-77
2023/12/29 10:25:42;;;;;;;5.40;0.80;;;;;;;;;;5118027;28;20149;-77
2023/12/29 10:28:10;;;;;;;5.75;0.65;;;;;;;;;;5117063;28;20277;-76
2023/12/29 10:30:37;;;;;;;2.05;0.20;;;;;;;;;;5116983;28;20476;-80
2023/12/29 10:33:04;;;;;;;1.65;0.10;;;;;;;;;;5099210;28;20399;-74
2023/12/29 10:35:31;;;;;;;1.67;0.10;;;;;;;;;;5116915;28;20048;-74
2023/12/29 10:38:10;;;;;;;3.00;0.20;;;;;;;;;;5116892;28;20036;-75
2023/12/29 10:40:36;;;;;;;2.42;0.13;;;;;;;;;;5116565;28;20562;-75
2023/12/29 10:43:07;;;;;;;2.20;0.10;;;;;;;;;;5116818;28;20036;-75
2023/12/29 10:45:34;;;;;;;2.33;0.10;;;;;;;;;;5117418;28;20043;-75
2023/12/29 10:48:01;;;;;;;1.77;0.10;;;;;;;;;;5117213;28;20051;-75
2023/12/29 10:50:27;;;;;;;3.05;0.30;;;;;;;;;;5116625;28;20144;-75
2023/12/29 10:53:12;;;;;;;1.83;0.10;;;;;;;;;;5116548;28;20069;-75
2023/12/29 10:55:38;;;;;;;;;;;;;;;;;;5116931;28;20487;-76
2023/12/29 10:58:06;;;;;;;1.58;0.13;;;;;;;;;;5117002;28;19945;-75
2023/12/29 11:00:35;;;;;;;2.92;0.20;;;;;;;;;;5098438;28;20131;-75
2023/12/29 11:03:01;;;;;;;4.38;0.20;;;;;;;;;;5116397;28;20075;-75
2023/12/29 11:05:28;;;;;;;4.38;0.30;;;;;;;;;;5116377;28;20059;-75
2023/12/29 11:07:55;;;;;;;2.63;0.40;;;;;;;;;;5116210;28;20094;-75
2023/12/29 11:10:21;;;;;;;4.28;0.30;;;;;;;;;;5116247;28;20043;-75
2023/12/29 11:12:48;;;;;;;4.28;0.50;;;;;;;;;;5116199;28;20077;-75
2023/12/29 11:15:15;;;;;;;3.05;0.45;;;;;;;;;;5116217;28;20055;-75
2023/12/29 11:17:49;;;;;;;5.45;0.95;;;;;;;;;;5116084;28;20047;-75
2023/12/29 11:20:16;;;;;;;5.47;0.60;;;;;;;;;;5116731;28;20052;-75
2023/12/29 11:22:43;;;;;;;9.05;1.00;;;;;;;;;;5116010;28;20043;-75
2023/12/29 11:25:09;;;;;;;8.52;1.27;;;;;;;;;;5115814;28;20047;-75
2023/12/29 11:27:35;;;;;;;5.95;0.80;;;;;;;;;;5115569;28;20511;-75
2023/12/29 11:30:02;;;;;;;5.78;0.60;;;;;;;;;;5115816;28;20047;-76
2023/12/29 11:32:33;;;;;;;8.15;0.80;;;;;;;;;;5116098;28;20043;-76
2023/12/29 11:35:03;;;;;;;8.52;1.20;;;;;;;;;;5114944;28;20578;-76
2023/12/29 11:37:42;;;;;;;8.48;1.27;;;;;;;;;;5116230;28;20048;-76
2023/12/29 11:40:11;;;;;;;8.95;1.60;;;;;;;;;;5115650;28;20048;-77
2023/12/29 11:42:40;;;;;;;16.70;2.22;;;;;;;;;;5097465;28;20039;-77
2023/12/29 11:45:26;;;;;;;6.05;1.48;;;;;;;;;;5115489;28;20043;-77
2023/12/29 11:47:53;;;;;;;13.32;2.00;;;;;;;;;;5116070;28;20051;-77
2023/12/29 11:50:33;;;;;;;11.93;1.75;;;;;;;;;;5115447;28;20047;-77
2023/12/29 11:52:59;;;;;;;8.27;1.33;;;;;;;;;;5115954;28;20047;-76
2023/12/29 11:55:35;;;;;;;6.93;1.23;;;;;;;;;;5097542;28;20400;-77
2023/12/29 11:58:04;;;;;;;10.43;1.40;;;;;;;;;;5116140;28;20062;-77
2023/12/29 12:00:49;;;;;;;7.18;0.93;;;;;;;;;;5115186;28;20086;-77
2023/12/29 12:03:15;;;;;;;;;;;;;;;;;;5115759;28;20075;-76
2023/12/29 12:05:51;;;;;;;17.17;1.70;;;;;;;;;;5097082;28;20366;-77
2023/12/29 12:08:34;;;;;;;13.48;1.55;;;;;;;;;;5115118;28;20047;-77
2023/12/29 12:11:20;;;;;;;11.40;1.50;;;;;;;;;;5115077;28;20059;-77
2023/12/29 12:13:47;;;;;;;15.75;1.88;;;;;;;;;;5114572;28;20506;-76
2023/12/29 12:16:32;;;;;;;11.82;0.98;;;;;;;;;;5097809;28;20422;-76
2023/12/29 12:18:59;;;;;;;8.00;1.20;;;;;;;;;;5114873;28;20130;-77
2023/12/29 12:21:26;;;;;;;9.00;0.95;;;;;;;;;;5114915;28;20051;-76
2023/12/29 12:23:52;;;;;;;14.88;1.27;;;;;;;;;;5114734;28;20036;-77
2023/12/29 12:26:20;;;;;;;7.47;1.05;;;;;;;;;;5096848;28;20059;-76
2023/12/29 12:28:46;;;;;;;10.20;1.05;;;;;;;;;;5114822;28;20052;-77
2023/12/29 12:31:13;;;;;;;9.35;1.13;;;;;;;;;;5114727;28;20044;-76
2023/12/29 12:33:39;;;;;;;9.00;0.98;;;;;;;;;;5114920;28;20044;-76
2023/12/29 12:36:06;;;;;;;11.23;1.23;;;;;;;;;;5096965;28;20051;-77
2023/12/29 12:38:33;;;;;;;7.82;1.00;;;;;;;;;;5114540;28;20101;-76
2023/12/29 12:41:11;;;;;;;13.10;1.05;;;;;;;;;;5114555;28;20054;-76
2023/12/29 12:43:40;;;;;;;9.52;1.38;;;;;;;;;;5114471;28;20074;-76
2023/12/29 12:46:08;;;;;;;9.07;1.05;;;;;;;;;;5114205;28;20047;-76
2023/12/29 12:48:42;;;;;;;13.73;1.15;;;;;;;;;;5113934;28;20160;-76
2023/12/29 12:51:08;;;;;;;14.57;1.95;;;;;;;;;;5114514;28;20070;-76
2023/12/29 12:53:35;;;;;;;12.57;1.02;;;;;;;;;;5114405;28;20156;-76
2023/12/29 12:56:03;;;;;;;11.02;1.05;;;;;;;;;;5114369;28;20052;-76
2023/12/29 12:58:30;;;;;;;11.43;1.00;;;;;;;;;;5114337;28;20059;-76
2023/12/29 13:00:58;;;;;;;12.57;0.90;;;;;;;;;;5114207;28;20126;-76
2023/12/29 13:03:24;;;;;;;9.82;1.20;;;;;;;;;;5114208;28;20050;-76
2023/12/29 13:05:51;;;;;;;12.70;1.75;;;;;;;;;;5113774;28;20060;-76
2023/12/29 13:08:17;;;;;;;14.18;1.42;;;;;;;;;;5114150;28;20093;-77
2023/12/29 13:10:44;;;;;;;8.02;0.90;;;;;;;;;;5114740;28;20047;-76
2023/12/29 13:13:11;;;;;;;7.65;1.05;;;;;;;;;;5114209;28;20087;-76
2023/12/29 13:15:45;;;;;;;15.98;1.98;;;;;;;;;;5114173;28;20126;-76
2023/12/29 13:18:11;;;;;;;10.68;1.05;;;;;;;;;;5114185;28;20130;-76
2023/12/29 13:20:50;;;;;;;7.47;0.73;;;;;;;;;;5114006;28;20047;-77
2023/12/29 13:23:16;;;;;;;7.50;1.00;;;;;;;;;;5114543;28;20100;-77
2023/12/29 13:25:47;;;;;;;10.27;1.00;;;;;;;;;;5096031;28;20048;-77
2023/12/29 13:28:14;;;;;;;7.07;0.95;;;;;;;;;;5114015;28;20055;-77
2023/12/29 13:30:40;;;;;;;8.02;0.60;;;;;;;;;;5113992;28;20047;-77
2023/12/29 13:33:19;;;;;;;11.90;1.10;;;;;;;;;;5114241;28;20043;-77
2023/12/29 13:35:48;;;;;;;8.00;0.73;;;;;;;;;;5095947;28;20057;-77
2023/12/29 13:38:19;;;;;;;10.50;0.93;;;;;;;;;;5113797;28;20048;-76
2023/12/29 13:40:52;;;;;;;10.88;0.80;;;;;;;;;;5114460;28;20395;-77
2023/12/29 13:43:18;;;;;;;7.05;0.60;;;;;;;;;;5114407;28;20040;-77
2023/12/29 13:45:45;;;;;;;12.10;1.50;;;;;;;;;;5113786;28;20047;-77
2023/12/29 13:48:12;;;;;;;8.52;0.93;;;;;;;;;;5095847;28;20488;-77
2023/12/29 13:50:40;;;;;;;10.00;1.20;;;;;;;;;;5096719;28;20055;-76
2023/12/29 13:53:06;;;;;;;10.02;0.85;;;;;;;;;;5113753;28;20051;-77
2023/12/29 13:55:32;;;;;;;8.40;1.05;;;;;;;;;;5095623;28;20092;-77
2023/12/29 13:57:58;;;;;;;6.82;0.60;;;;;;;;;;5096069;28;20047;-77
2023/12/29 14:00:26;;;;;;;14.38;1.00;;;;;;;;;;5117305;28;20492;-76
2023/12/29 14:02:55;;;;;;;9.50;1.13;;;;;;;;;;5118094;28;20051;-76
2023/12/29 14:05:24;;;;;;;15.32;1.23;;;;;;;;;;5117803;28;20093;-76
2023/12/29 14:07:55;;;;;;;10.20;1.00;;;;;;;;;;5117662;28;20043;-77
2023/12/29 14:10:21;;;;;;;9.85;1.30;;;;;;;;;;5118297;28;20373;-77
2023/12/29 14:12:48;;;;;;;8.85;1.02;;;;;;;;;;5117343;28;20505;-76
2023/12/29 14:15:14;;;;;;;15.20;1.33;;;;;;;;;;5099188;28;20031;-76
2023/12/29 14:17:40;;;;;;;13.73;1.35;;;;;;;;;;5099398;28;20078;-76
2023/12/29 14:20:07;;;;;;;10.10;1.17;;;;;;;;;;5099569;28;20040;-77
2023/12/29 14:22:34;;;;;;;10.90;1.05;;;;;;;;;;5117718;28;20083;-77
2023/12/29 14:25:01;;;;;;;11.23;1.15;;;;;;;;;;5081688;28;20044;-77
2023/12/29 14:27:27;;;;;;;8.38;0.95;;;;;;;;;;5117183;28;20130;-77
2023/12/29 14:29:54;;;;;;;7.70;1.00;;;;;;;;;;5117037;28;20055;-77
2023/12/29 14:32:20;;;;;;;10.05;1.10;;;;;;;;;;5117003;28;20044;-77
2023/12/29 14:34:52;;;;;;;9.45;0.95;;;;;;;;;;5117250;28;20472;-77
2023/12/29 14:37:19;;;;;;;8.90;1.08;;;;;;;;;;5117472;28;20059;-77